Time;durP1;ratioP1;P1;durP2;ratioP2;P2;SDS_P1;SDS_P2;PMS_P1;PMS_P2;Temp;Humidity;BMP_temperature;BMP_pressure;BME280_temperature;BME280_humidity;BME280_pressure;Samples;Min_cycle;Max_cycle;Signal;HPM_P1;HPM_P2
2023/10/20 00:01:00;;;;;;;5.10;2.65;;;18.30;99.90;;;;;;5009378;28;20022;-64
2023/10/20 00:03:26;;;;;;;5.15;2.90;;;18.40;99.90;;;;;;5004902;28;20097;-65
2023/10/20 00:05:52;;;;;;;3.78;2.40;;;18.30;99.90;;;;;;5013252;28;20017;-66
2023/10/20 00:08:17;;;;;;;2.78;2.30;;;18.40;99.90;;;;;;5013458;28;20455;-64
2023/10/20 00:10:43;;;;;;;4.50;2.60;;;18.40;99.90;;;;;;5013251;28;20038;-64
2023/10/20 00:13:09;;;;;;;4.82;2.88;;;18.40;99.90;;;;;;5013827;28;20040;-63
2023/10/20 00:15:35;;;;;;;3.25;2.92;;;18.30;99.90;;;;;;5013242;28;20375;-62
2023/10/20 00:18:02;;;;;;;3.28;2.72;;;18.30;99.90;;;;;;5013555;28;20032;-63
2023/10/20 00:20:28;;;;;;;5.10;3.00;;;18.30;99.90;;;;;;5013020;28;20093;-62
2023/10/20 00:22:55;;;;;;;4.43;2.60;;;18.30;99.90;;;;;;5013494;28;20018;-67
2023/10/20 00:25:21;;;;;;;4.00;2.97;;;18.30;99.90;;;;;;5011882;28;20406;-62
2023/10/20 00:27:47;;;;;;;4.65;2.75;;;18.40;99.90;;;;;;5013452;28;20084;-62
2023/10/20 00:30:13;;;;;;;5.03;2.53;;;18.30;99.90;;;;;;5013275;28;20024;-62
2023/10/20 00:32:42;;;;;;;4.13;2.67;;;18.30;99.90;;;;;;5013318;28;20034;-62
2023/10/20 00:35:09;;;;;;;2.78;2.40;;;18.30;99.90;;;;;;5012938;28;20442;-62
2023/10/20 00:37:36;;;;;;;3.83;2.40;;;18.30;99.90;;;;;;5013065;28;20441;-64
2023/10/20 00:40:09;;;;;;;4.03;2.00;;;18.30;99.90;;;;;;5011787;28;20072;-62
2023/10/20 00:42:35;;;;;;;7.18;2.20;;;18.30;99.90;;;;;;5013157;28;20033;-62
2023/10/20 00:45:01;;;;;;;3.75;2.20;;;18.30;99.90;;;;;;5013417;28;20029;-63
2023/10/20 00:47:27;;;;;;;3.10;2.03;;;18.30;99.90;;;;;;5013077;28;20402;-64
2023/10/20 00:49:53;;;;;;;2.13;1.92;;;18.30;99.90;;;;;;5012809;28;20383;-63
2023/10/20 00:52:21;;;;;;;2.88;1.80;;;18.30;99.90;;;;;;5016789;28;20042;-62
2023/10/20 00:54:47;;;;;;;5.05;2.58;;;18.30;99.90;;;;;;5017123;28;20018;-63
2023/10/20 00:57:16;;;;;;;3.70;2.00;;;18.30;99.90;;;;;;5017160;28;20026;-62
2023/10/20 00:59:42;;;;;;;2.47;1.85;;;18.30;99.90;;;;;;5017088;28;20471;-63
2023/10/20 01:02:08;;;;;;;4.15;2.03;;;18.30;99.90;;;;;;5017058;28;20022;-62
2023/10/20 01:04:34;;;;;;;3.65;1.88;;;18.30;99.90;;;;;;5016785;28;20018;-66
2023/10/20 01:06:59;;;;;;;4.10;2.50;;;18.30;99.90;;;;;;5017095;28;20054;-62
2023/10/20 01:09:27;;;;;;;2.58;2.10;;;18.30;99.90;;;;;;5016867;28;20038;-62
2023/10/20 01:11:53;;;;;;;6.68;2.30;;;18.30;99.90;;;;;;5017075;28;20045;-63
2023/10/20 01:14:19;;;;;;;3.75;2.05;;;18.30;99.90;;;;;;5017047;28;20103;-62
2023/10/20 01:16:45;;;;;;;3.00;1.95;;;18.30;99.90;;;;;;5016887;28;20022;-63
2023/10/20 01:19:11;;;;;;;3.63;1.80;;;18.30;99.90;;;;;;5016782;28;20463;-62
2023/10/20 01:21:37;;;;;;;5.45;1.95;;;18.30;99.90;;;;;;5016828;28;20030;-61
2023/10/20 01:24:04;;;;;;;5.55;2.22;;;18.30;99.90;;;;;;5017007;28;20018;-61
2023/10/20 01:26:33;;;;;;;5.03;2.00;;;18.30;99.90;;;;;;5017009;28;20029;-63
2023/10/20 01:28:59;;;;;;;3.78;2.00;;;18.30;99.90;;;;;;5016623;28;20026;-62
2023/10/20 01:31:25;;;;;;;2.90;2.00;;;18.30;99.90;;;;;;5016704;28;20034;-61
2023/10/20 01:33:52;;;;;;;3.25;2.08;;;18.30;99.90;;;;;;5016380;28;20101;-62
2023/10/20 01:36:17;;;;;;;3.95;2.33;;;18.30;99.90;;;;;;5016669;28;20030;-63
2023/10/20 01:38:44;;;;;;;5.20;2.40;;;18.30;99.90;;;;;;5016373;28;20080;-62
2023/10/20 01:41:09;;;;;;;4.05;2.58;;;18.20;99.90;;;;;;5016579;28;20050;-62
2023/10/20 01:43:35;;;;;;;2.90;2.20;;;18.20;99.90;;;;;;5016217;28;20064;-62
2023/10/20 01:46:02;;;;;;;4.47;2.60;;;18.20;99.90;;;;;;5016624;28;20022;-64
2023/10/20 01:48:27;;;;;;;4.70;2.70;;;18.20;99.90;;;;;;5015987;28;20050;-62
2023/10/20 01:50:53;;;;;;;4.40;2.72;;;18.30;99.90;;;;;;5016335;28;20467;-62
2023/10/20 01:53:18;;;;;;;6.35;2.50;;;18.30;99.90;;;;;;5016254;28;20030;-63
2023/10/20 01:55:50;;;;;;;3.75;2.80;;;18.20;99.90;;;;;;5016162;28;20057;-62
2023/10/20 01:58:18;;;;;;;4.70;2.30;;;18.20;99.90;;;;;;5015861;28;20041;-62
2023/10/20 02:00:48;;;;;;;5.90;2.58;;;18.20;99.90;;;;;;5016150;28;20067;-62
2023/10/20 02:03:13;;;;;;;6.70;2.78;;;18.20;99.90;;;;;;5016056;28;20018;-62
2023/10/20 02:05:39;;;;;;;3.42;2.50;;;18.20;99.90;;;;;;5016182;28;20533;-62
2023/10/20 02:08:05;;;;;;;2.97;2.60;;;18.10;99.90;;;;;;5015917;28;20446;-62
2023/10/20 02:10:31;;;;;;;2.78;2.58;;;18.20;99.90;;;;;;5015919;28;20030;-66
2023/10/20 02:12:56;;;;;;;3.10;2.70;;;18.20;99.90;;;;;;5015720;28;20037;-64
2023/10/20 02:15:22;;;;;;;5.88;2.97;;;18.20;99.90;;;;;;5015773;28;20076;-67
2023/10/20 02:17:48;;;;;;;3.70;3.22;;;18.20;99.90;;;;;;5015852;28;20030;-64
2023/10/20 02:20:15;;;;;;;3.75;3.38;;;18.20;99.90;;;;;;5015741;28;20059;-63
2023/10/20 02:22:41;;;;;;;5.03;4.40;;;18.20;99.90;;;;;;5015805;28;20030;-62
2023/10/20 02:25:09;;;;;;;4.28;3.88;;;18.20;99.90;;;;;;5015621;28;20366;-62
2023/10/20 02:27:36;;;;;;;4.57;4.13;;;18.20;99.90;;;;;;5015758;28;20030;-63
2023/10/20 02:30:03;;;;;;;7.28;4.60;;;18.20;99.90;;;;;;5015339;28;20104;-63
2023/10/20 02:32:28;;;;;;;5.88;5.30;;;18.20;99.90;;;;;;5015465;28;20034;-64
2023/10/20 02:34:54;;;;;;;6.03;5.30;;;18.10;99.90;;;;;;5015533;28;20080;-62
2023/10/20 02:37:19;;;;;;;6.95;5.30;;;18.20;99.90;;;;;;5015487;28;20475;-68
2023/10/20 02:39:46;;;;;;;6.45;5.68;;;18.10;99.90;;;;;;5015321;28;20068;-67
2023/10/20 02:42:12;;;;;;;6.53;5.93;;;18.20;99.90;;;;;;5015453;28;20026;-62
2023/10/20 02:44:38;;;;;;;6.47;5.88;;;18.10;99.90;;;;;;5015222;28;20037;-63
2023/10/20 02:47:03;;;;;;;6.18;5.68;;;18.10;99.90;;;;;;5015186;28;20034;-62
2023/10/20 02:49:29;;;;;;;6.10;5.60;;;18.10;99.90;;;;;;5015164;28;20022;-63
2023/10/20 02:51:55;;;;;;;7.07;6.38;;;18.10;99.90;;;;;;5014012;28;20033;-62
2023/10/20 02:54:21;;;;;;;5.93;5.30;;;18.10;99.90;;;;;;5015159;28;20026;-64
2023/10/20 02:56:46;;;;;;;7.05;6.35;;;18.10;99.90;;;;;;5015349;28;20087;-64
2023/10/20 02:59:12;;;;;;;10.65;6.18;;;18.10;99.90;;;;;;5014653;28;20022;-66
2023/10/20 03:01:38;;;;;;;6.78;6.20;;;18.10;99.90;;;;;;5014961;28;20026;-67
2023/10/20 03:04:04;;;;;;;7.05;6.45;;;18.10;99.90;;;;;;5014837;28;20055;-67
2023/10/20 03:06:29;;;;;;;6.95;6.28;;;18.10;99.90;;;;;;5015248;28;20030;-66
2023/10/20 03:08:55;;;;;;;7.80;6.65;;;18.10;99.90;;;;;;5014840;28;20037;-63
2023/10/20 03:11:20;;;;;;;8.18;6.95;;;18.10;99.90;;;;;;5014589;28;20112;-65
2023/10/20 03:13:46;;;;;;;7.40;6.55;;;18.10;99.90;;;;;;5014040;28;20430;-64
2023/10/20 03:16:11;;;;;;;8.48;7.60;;;18.10;99.90;;;;;;5014579;28;20120;-67
2023/10/20 03:18:37;;;;;;;7.32;6.63;;;18.10;99.90;;;;;;5014782;28;20022;-69
2023/10/20 03:21:03;;;;;;;7.10;6.45;;;18.10;99.90;;;;;;5013560;28;20407;-66
2023/10/20 03:23:30;;;;;;;8.43;7.63;;;18.10;99.90;;;;;;5014723;28;20061;-68
2023/10/20 03:25:55;;;;;;;8.48;7.18;;;18.10;99.90;;;;;;5014532;28;20387;-68
2023/10/20 03:28:21;;;;;;;8.23;7.43;;;18.10;99.90;;;;;;5014250;28;20476;-65
2023/10/20 03:30:47;;;;;;;9.10;7.32;;;18.10;99.90;;;;;;5014441;28;20026;-69
2023/10/20 03:33:13;;;;;;;7.90;7.20;;;18.00;99.90;;;;;;5014505;28;20057;-62
2023/10/20 03:35:42;;;;;;;8.20;7.40;;;18.10;99.90;;;;;;5014495;28;20384;-69
2023/10/20 03:38:09;;;;;;;8.18;7.47;;;18.00;99.90;;;;;;5014192;28;20469;-64
2023/10/20 03:40:40;;;;;;;7.30;6.70;;;18.00;99.90;;;;;;5014212;28;20022;-66
2023/10/20 03:43:09;;;;;;;7.47;6.75;;;18.00;99.90;;;;;;5014125;28;20029;-68
2023/10/20 03:45:41;;;;;;;8.48;7.78;;;18.00;99.90;;;;;;5010173;28;20026;-69
2023/10/20 03:48:10;;;;;;;;;;;18.10;99.90;;;;;;5012944;28;20033;-67
2023/10/20 03:50:38;;;;;;;7.78;7.07;;;18.10;99.90;;;;;;5012583;28;20039;-68
2023/10/20 03:53:04;;;;;;;8.43;7.60;;;18.10;99.90;;;;;;5014205;28;20037;-64
2023/10/20 03:55:30;;;;;;;8.15;7.45;;;18.00;99.90;;;;;;5013759;28;20068;-68
2023/10/20 03:57:56;;;;;;;8.27;7.50;;;18.00;99.90;;;;;;5013818;28;20105;-66
2023/10/20 04:00:27;;;;;;;8.15;7.43;;;18.00;99.90;;;;;;5013658;28;20018;-63
2023/10/20 04:02:53;;;;;;;8.07;7.32;;;18.00;99.90;;;;;;5013899;28;20030;-67
2023/10/20 04:05:19;;;;;;;8.65;7.82;;;18.00;99.90;;;;;;5013754;28;20096;-62
2023/10/20 04:07:45;;;;;;;8.27;7.38;;;18.00;99.90;;;;;;5013869;28;20044;-64
2023/10/20 04:10:11;;;;;;;8.60;7.88;;;18.00;99.90;;;;;;5013789;28;20030;-62
2023/10/20 04:12:38;;;;;;;8.75;7.65;;;18.00;99.90;;;;;;5013294;28;20053;-69
2023/10/20 04:15:08;;;;;;;10.07;7.68;;;18.00;99.90;;;;;;5013939;28;20454;-69
2023/10/20 04:17:38;;;;;;;7.80;7.10;;;18.00;99.90;;;;;;5013547;28;20030;-69
2023/10/20 04:20:06;;;;;;;13.88;7.30;;;18.00;99.90;;;;;;5013806;28;20029;-71
2023/10/20 04:22:32;;;;;;;6.28;5.68;;;18.00;99.90;;;;;;5012275;28;20033;-70
2023/10/20 04:24:58;;;;;;;6.57;4.90;;;18.00;99.90;;;;;;5013032;28;20030;-71
2023/10/20 04:27:57;;;;;;;5.47;4.97;;;18.00;99.90;;;;;;5013135;28;20029;-68
2023/10/20 04:54:57;;;;;;;5.25;4.28;;;18.20;99.90;;;;;;5013077;28;20084;-65
2023/10/20 05:02:39;;;;;;;5.95;4.18;;;18.30;99.90;;;;;;5063993;23;20050;-64
2023/10/20 05:05:26;;;;;;;4.60;4.20;;;18.30;99.90;;;;;;4993518;28;20034;-63
2023/10/20 05:07:53;;;;;;;5.55;4.25;;;18.30;99.90;;;;;;4993487;28;20026;-63
2023/10/20 05:10:19;;;;;;;5.57;4.22;;;18.30;99.90;;;;;;4992685;28;20031;-62
2023/10/20 05:12:48;;;;;;;5.30;4.35;;;18.30;99.90;;;;;;4991782;28;20390;-63
2023/10/20 05:15:14;;;;;;;5.60;4.60;;;18.30;99.90;;;;;;4987604;28;20361;-62
2023/10/20 05:17:40;;;;;;;5.40;4.90;;;18.30;99.90;;;;;;4990518;28;20498;-63
2023/10/20 05:20:09;;;;;;;5.35;4.93;;;18.30;99.90;;;;;;4984437;28;20026;-63
2023/10/20 05:22:35;;;;;;;5.00;4.45;;;18.30;99.90;;;;;;4986824;28;20034;-62
2023/10/20 05:25:04;;;;;;;5.18;4.50;;;18.30;99.90;;;;;;4989008;28;20031;-62
2023/10/20 05:27:30;;;;;;;5.10;4.60;;;18.30;99.90;;;;;;4992774;28;20022;-64
2023/10/20 05:29:55;;;;;;;5.60;4.75;;;18.30;99.90;;;;;;4991449;28;20026;-62
2023/10/20 05:32:21;;;;;;;4.82;4.43;;;18.30;99.90;;;;;;4996154;28;20057;-62
2023/10/20 05:34:47;;;;;;;5.53;4.78;;;18.30;99.90;;;;;;4989152;28;20031;-62
2023/10/20 05:37:20;;;;;;;5.03;4.53;;;18.30;99.90;;;;;;4983690;28;20026;-66
2023/10/20 05:39:46;;;;;;;4.93;4.40;;;18.30;99.90;;;;;;5007923;28;20022;-68
2023/10/20 05:42:12;;;;;;;5.38;4.88;;;18.30;99.90;;;;;;4994405;28;20030;-65
2023/10/20 05:44:47;;;;;;;5.25;4.43;;;18.30;99.90;;;;;;5010683;28;20430;-74
2023/10/20 05:47:16;;;;;;;6.40;4.80;;;18.30;99.90;;;;;;4996144;28;20026;-74
2023/10/20 05:49:42;;;;;;;6.65;4.68;;;18.40;99.90;;;;;;4996361;28;20064;-61
2023/10/20 05:52:08;;;;;;;5.20;4.72;;;18.30;99.90;;;;;;5010678;28;20073;-64
2023/10/20 05:54:35;;;;;;;5.93;4.57;;;18.30;99.90;;;;;;5010098;28;20023;-63
2023/10/20 05:57:00;;;;;;;5.28;4.78;;;18.30;99.90;;;;;;4995054;28;20038;-62
2023/10/20 05:59:26;;;;;;;5.20;4.40;;;18.40;99.90;;;;;;4993742;28;20075;-63
2023/10/20 06:01:52;;;;;;;5.90;5.30;;;18.30;99.90;;;;;;4984928;28;20038;-63
2023/10/20 06:04:17;;;;;;;7.60;5.93;;;18.30;99.90;;;;;;5008857;28;20479;-64
2023/10/20 06:06:43;;;;;;;7.85;7.13;;;18.30;99.90;;;;;;4993936;28;20045;-64
2023/10/20 06:09:09;;;;;;;8.00;7.10;;;18.30;99.90;;;;;;4992628;28;20023;-65
2023/10/20 06:11:38;;;;;;;7.93;7.13;;;18.30;99.90;;;;;;4993300;28;20081;-63
2023/10/20 06:14:04;;;;;;;7.60;6.90;;;18.20;99.90;;;;;;4996249;28;20081;-64
2023/10/20 06:16:30;;;;;;;7.80;7.20;;;18.20;99.90;;;;;;4993816;28;20502;-65
2023/10/20 06:18:56;;;;;;;7.97;7.05;;;18.20;99.90;;;;;;4996054;28;20471;-65
2023/10/20 06:21:22;;;;;;;7.68;6.85;;;18.10;99.90;;;;;;4993549;28;20041;-64
2023/10/20 06:23:48;;;;;;;7.15;6.45;;;18.10;99.90;;;;;;4993813;28;20064;-66
2023/10/20 06:26:14;;;;;;;8.85;7.35;;;18.10;99.90;;;;;;4994141;28;20161;-64
2023/10/20 06:28:40;;;;;;;7.45;6.85;;;18.10;99.90;;;;;;4992807;28;20101;-65
2023/10/20 06:33:47;;;;;;;7.72;6.90;;;18.10;99.90;;;;;;4995628;28;20547;-66
2023/10/20 06:36:19;;;;;;;8.48;7.28;;;18.00;99.90;;;;;;4993245;28;20022;-64
2023/10/20 06:41:11;;;;;;;7.05;6.35;;;18.00;99.90;;;;;;4994884;28;20165;-65
2023/10/20 06:43:36;;;;;;;7.45;6.72;;;18.00;99.90;;;;;;5009643;28;20050;-66
2023/10/20 06:46:02;;;;;;;7.72;6.85;;;18.00;99.90;;;;;;4990918;28;20493;-65
2023/10/20 06:48:28;;;;;;;8.05;7.10;;;18.00;99.90;;;;;;4990693;28;20030;-66
2023/10/20 06:50:54;;;;;;;7.72;7.00;;;18.00;99.90;;;;;;4994779;28;20053;-65
2023/10/20 06:53:20;;;;;;;7.63;6.70;;;18.00;99.90;;;;;;4994202;28;20382;-65
2023/10/20 06:55:51;;;;;;;7.20;6.50;;;18.00;99.90;;;;;;4994728;28;20478;-65
2023/10/20 06:58:20;;;;;;;8.87;7.00;;;18.00;99.90;;;;;;4993252;28;20070;-66
2023/10/20 07:00:46;;;;;;;7.45;6.63;;;18.00;99.90;;;;;;4994827;28;20270;-66
2023/10/20 07:03:15;;;;;;;7.25;6.55;;;18.00;99.90;;;;;;4993721;28;20038;-67
2023/10/20 07:05:41;;;;;;;7.63;6.40;;;18.00;99.90;;;;;;4992319;28;20037;-65
2023/10/20 07:08:07;;;;;;;6.97;6.38;;;18.00;99.90;;;;;;4993868;28;20534;-66
2023/10/20 07:10:37;;;;;;;8.27;6.82;;;18.00;99.90;;;;;;4993691;28;20037;-66
2023/10/20 07:13:10;;;;;;;6.38;5.75;;;18.00;99.90;;;;;;4989519;28;20035;-64
2023/10/20 07:15:36;;;;;;;6.63;6.03;;;18.00;99.90;;;;;;4992330;28;20471;-64
2023/10/20 07:18:03;;;;;;;5.97;5.00;;;18.00;99.90;;;;;;4994163;28;20057;-64
2023/10/20 07:20:30;;;;;;;5.80;5.20;;;18.00;99.90;;;;;;4994648;28;20019;-64
2023/10/20 07:22:56;;;;;;;5.80;5.30;;;18.00;99.90;;;;;;4994781;28;20466;-64
2023/10/20 07:25:22;;;;;;;6.57;5.53;;;18.00;99.90;;;;;;4993960;28;20081;-65
2023/10/20 07:27:48;;;;;;;6.07;5.47;;;18.00;99.90;;;;;;4992744;28;20030;-71
2023/10/20 07:30:16;;;;;;;5.72;5.15;;;17.90;99.90;;;;;;4991861;28;20023;-65
2023/10/20 07:32:43;;;;;;;6.93;5.70;;;18.00;99.90;;;;;;4987299;28;20080;-65
2023/10/20 07:35:11;;;;;;;6.05;5.45;;;17.90;99.90;;;;;;4973819;28;20041;-65
2023/10/20 07:37:37;;;;;;;6.38;5.55;;;17.90;99.90;;;;;;4989261;28;20441;-65
2023/10/20 07:40:04;;;;;;;5.45;5.00;;;17.90;99.90;;;;;;4989168;28;20026;-64
2023/10/20 07:42:31;;;;;;;6.15;5.55;;;17.90;99.90;;;;;;4994068;28;20034;-64
2023/10/20 07:44:58;;;;;;;6.95;5.57;;;18.00;99.90;;;;;;4993887;28;20033;-65
2023/10/20 07:47:24;;;;;;;6.93;5.85;;;18.00;99.90;;;;;;4994448;28;20042;-65
2023/10/20 07:49:51;;;;;;;6.28;5.45;;;18.00;99.90;;;;;;4990340;28;20026;-66
2023/10/20 07:52:17;;;;;;;5.65;4.70;;;17.90;99.90;;;;;;4994220;28;20030;-64
2023/10/20 07:54:43;;;;;;;5.63;4.72;;;18.00;99.90;;;;;;4994219;28;20030;-65
2023/10/20 07:57:10;;;;;;;6.57;4.90;;;17.90;99.90;;;;;;4993746;28;20026;-65
2023/10/20 07:59:36;;;;;;;5.03;4.47;;;18.00;99.90;;;;;;4993870;28;20127;-65
2023/10/20 08:02:05;;;;;;;5.35;4.78;;;17.90;99.90;;;;;;4993231;28;20463;-65
2023/10/20 08:04:34;;;;;;;5.47;4.97;;;17.90;99.90;;;;;;4993831;28;20041;-69
2023/10/20 08:06:59;;;;;;;5.95;4.63;;;17.90;99.90;;;;;;4994226;28;20502;-65
2023/10/20 08:09:27;;;;;;;5.57;4.80;;;18.00;99.90;;;;;;4994003;28;20030;-65
2023/10/20 08:11:53;;;;;;;5.50;5.00;;;18.00;99.90;;;;;;4994127;28;20026;-66
2023/10/20 08:14:20;;;;;;;7.03;4.88;;;18.00;99.90;;;;;;4992048;28;20019;-65
2023/10/20 08:16:47;;;;;;;5.32;4.80;;;17.90;99.90;;;;;;4984982;28;20122;-65
2023/10/20 08:19:13;;;;;;;6.82;5.20;;;17.90;99.90;;;;;;4993934;28;20078;-65
2023/10/20 08:21:38;;;;;;;5.45;4.95;;;17.90;99.90;;;;;;4993973;28;20030;-66
2023/10/20 08:24:05;;;;;;;5.60;5.10;;;17.90;99.90;;;;;;4993971;28;20126;-67
2023/10/20 08:26:31;;;;;;;5.95;5.40;;;17.90;99.90;;;;;;4993621;28;20033;-65
2023/10/20 08:28:58;;;;;;;6.60;5.28;;;17.90;99.90;;;;;;4993858;28;20022;-67
2023/10/20 08:31:25;;;;;;;7.65;5.40;;;17.90;99.90;;;;;;4992483;28;20026;-66
2023/10/20 08:33:52;;;;;;;5.70;5.20;;;17.90;99.90;;;;;;4991533;28;20038;-66
2023/10/20 08:36:22;;;;;;;5.93;5.43;;;17.90;99.90;;;;;;4974531;28;20031;-69
2023/10/20 08:38:50;;;;;;;6.05;5.00;;;17.90;99.90;;;;;;4977534;28;20076;-65
2023/10/20 08:41:18;;;;;;;5.70;5.20;;;17.90;99.90;;;;;;4993792;28;20034;-64
2023/10/20 08:43:45;;;;;;;5.63;5.10;;;17.90;99.90;;;;;;4993349;28;20493;-64
2023/10/20 08:46:13;;;;;;;5.65;5.13;;;17.90;99.90;;;;;;4993966;28;20022;-63
2023/10/20 08:48:43;;;;;;;5.25;4.85;;;17.90;99.90;;;;;;4993243;28;20027;-64
2023/10/20 08:51:12;;;;;;;5.68;5.10;;;17.90;99.90;;;;;;4993890;28;20037;-64
2023/10/20 08:53:38;;;;;;;6.00;5.25;;;17.90;99.90;;;;;;4993249;28;20027;-64
2023/10/20 08:56:06;;;;;;;5.82;5.32;;;18.00;99.90;;;;;;4993893;28;20027;-64
2023/10/20 08:58:33;;;;;;;5.95;5.43;;;18.00;99.90;;;;;;4993790;28;20038;-67
2023/10/20 09:00:59;;;;;;;5.97;5.43;;;18.00;99.90;;;;;;4993459;28;20487;-64
2023/10/20 09:03:38;;;;;;;5.63;5.03;;;18.00;99.90;;;;;;4993080;28;20038;-65
2023/10/20 09:06:09;;;;;;;5.15;4.75;;;18.00;99.90;;;;;;4989850;28;20029;-64
2023/10/20 09:08:35;;;;;;;4.77;4.37;;;18.00;99.90;;;;;;4991435;28;20022;-67
2023/10/20 09:11:01;;;;;;;5.95;5.35;;;18.00;99.90;;;;;;4988622;28;20024;-68
2023/10/20 09:13:34;;;;;;;4.45;4.05;;;18.00;99.90;;;;;;4997060;28;20410;-65
2023/10/20 09:16:07;;;;;;;4.07;3.67;;;18.00;99.90;;;;;;4995161;28;20029;-68
2023/10/20 09:18:44;;;;;;;4.60;4.20;;;18.10;99.90;;;;;;4994910;28;20041;-65
2023/10/20 09:21:11;;;;;;;4.00;3.60;;;18.00;99.90;;;;;;4981263;28;20022;-64
2023/10/20 09:23:37;;;;;;;4.13;3.55;;;18.10;99.90;;;;;;4994563;28;20042;-64
2023/10/20 09:26:02;;;;;;;4.43;4.03;;;18.10;99.90;;;;;;4997257;28;20400;-71
2023/10/20 09:28:28;;;;;;;4.30;3.90;;;18.00;99.90;;;;;;4995828;28;20026;-65
2023/10/20 09:30:55;;;;;;;5.88;3.90;;;18.10;99.90;;;;;;4994580;28;20026;-63
2023/10/20 09:33:23;;;;;;;4.07;3.38;;;18.10;99.90;;;;;;4997159;28;20038;-64
2023/10/20 09:35:50;;;;;;;3.58;3.28;;;18.10;99.90;;;;;;4996180;28;20028;-63
2023/10/20 09:38:20;;;;;;;3.05;2.72;;;18.10;99.90;;;;;;4995354;28;20021;-64
2023/10/20 09:40:46;;;;;;;5.07;3.80;;;18.10;99.90;;;;;;4996571;28;20061;-65
2023/10/20 09:43:30;;;;;;;4.75;3.75;;;18.10;99.90;;;;;;4986829;28;20531;-68
2023/10/20 09:46:33;;;;;;;3.20;2.90;;;18.10;99.90;;;;;;4988873;28;20105;-65
2023/10/20 09:49:00;;;;;;;5.95;3.15;;;18.10;99.90;;;;;;5005916;28;20491;-65
2023/10/20 09:51:27;;;;;;;3.88;3.08;;;18.20;99.90;;;;;;4982951;28;20035;-70
2023/10/20 09:53:54;;;;;;;3.75;3.35;;;18.10;99.90;;;;;;4996554;28;20043;-64
2023/10/20 09:56:21;;;;;;;3.72;2.90;;;18.10;99.90;;;;;;4996163;28;20065;-65
2023/10/20 09:58:47;;;;;;;4.75;2.72;;;18.10;99.90;;;;;;4996729;28;20066;-64
2023/10/20 10:01:15;;;;;;;3.15;2.03;;;18.20;99.90;;;;;;4995830;28;20077;-65
2023/10/20 10:03:47;;;;;;;3.22;2.30;;;18.20;99.90;;;;;;4996300;28;20043;-64
2023/10/20 10:06:19;;;;;;;2.47;2.28;;;18.20;99.90;;;;;;4996566;28;20030;-65
2023/10/20 10:08:45;;;;;;;2.47;1.75;;;18.20;99.90;;;;;;4996367;28;20697;-64
2023/10/20 10:11:20;;;;;;;1.80;1.30;;;18.30;99.90;;;;;;4995694;28;20026;-64
2023/10/20 10:13:53;;;;;;;1.92;1.73;;;18.30;99.90;;;;;;4996060;28;20029;-64
2023/10/20 10:16:19;;;;;;;;;;;18.30;99.90;;;;;;4995347;28;20498;-65
2023/10/20 10:18:45;;;;;;;1.85;1.52;;;18.30;99.90;;;;;;4995860;28;19910;-65
2023/10/20 10:21:25;;;;;;;2.40;1.50;;;18.30;99.90;;;;;;4996462;28;20037;-65
2023/10/20 10:24:11;;;;;;;1.60;1.00;;;18.30;99.90;;;;;;4994843;28;20388;-64
2023/10/20 10:26:50;;;;;;;1.20;0.90;;;18.30;99.90;;;;;;4995185;28;20484;-64
2023/10/20 10:29:17;;;;;;;2.60;1.75;;;18.30;99.90;;;;;;4993098;28;20114;-65
2023/10/20 10:31:43;;;;;;;1.48;0.98;;;18.30;99.90;;;;;;4994449;28;20386;-65
2023/10/20 10:34:10;;;;;;;2.67;1.23;;;18.30;99.90;;;;;;4992872;28;21568;-66
2023/10/20 10:36:43;;;;;;;2.55;1.00;;;18.30;99.90;;;;;;4989942;28;20110;-65
2023/10/20 10:39:21;;;;;;;2.47;1.38;;;18.40;99.90;;;;;;4995431;28;20027;-66
2023/10/20 10:41:47;;;;;;;0.98;0.82;;;18.40;99.90;;;;;;4993552;28;20033;-65
2023/10/20 10:44:13;;;;;;;1.65;1.10;;;18.40;99.90;;;;;;4994334;28;20026;-64
2023/10/20 10:46:38;;;;;;;1.42;0.95;;;18.40;99.90;;;;;;4994625;28;20052;-64
2023/10/20 10:49:10;;;;;;;1.60;0.82;;;18.50;99.90;;;;;;4994555;28;20026;-75
2023/10/20 10:51:46;;;;;;;1.00;0.77;;;18.50;99.90;;;;;;4994521;28;20039;-64
2023/10/20 10:54:13;;;;;;;2.30;0.88;;;18.50;99.90;;;;;;4993402;28;20027;-73
2023/10/20 10:56:41;;;;;;;1.77;0.70;;;18.50;99.90;;;;;;4975269;28;20387;-65
2023/10/20 10:59:10;;;;;;;1.35;0.80;;;18.50;99.90;;;;;;4975579;28;20018;-65
2023/10/20 11:01:38;;;;;;;0.88;0.55;;;18.50;99.90;;;;;;4993114;28;20489;-72
2023/10/20 11:04:07;;;;;;;1.30;0.80;;;18.50;99.90;;;;;;4990071;28;20042;-67
2023/10/20 11:06:36;;;;;;;3.10;1.30;;;18.50;99.90;;;;;;4992233;28;20030;-70
2023/10/20 11:09:06;;;;;;;2.53;1.30;;;18.50;99.90;;;;;;4994286;28;20034;-71
2023/10/20 11:11:38;;;;;;;3.22;1.30;;;18.50;99.90;;;;;;4991947;28;20113;-65
2023/10/20 11:14:03;;;;;;;4.75;1.52;;;18.50;99.90;;;;;;4993915;28;20045;-65
2023/10/20 11:16:29;;;;;;;5.88;1.85;;;18.50;99.90;;;;;;4993788;28;20475;-64
2023/10/20 11:18:55;;;;;;;4.65;2.22;;;18.50;99.90;;;;;;4991632;28;20034;-65
2023/10/20 11:21:21;;;;;;;4.47;2.10;;;18.50;99.90;;;;;;4992293;28;20027;-63
2023/10/20 11:23:50;;;;;;;3.58;1.83;;;18.50;99.90;;;;;;4993774;28;20400;-62
2023/10/20 11:26:20;;;;;;;3.70;1.50;;;18.50;99.90;;;;;;4991167;28;20037;-62
2023/10/20 11:28:46;;;;;;;3.08;1.08;;;18.50;99.90;;;;;;4991977;28;20030;-62
2023/10/20 11:31:12;;;;;;;1.40;0.70;;;18.50;99.90;;;;;;4991657;28;20022;-62
2023/10/20 11:33:37;;;;;;;3.58;0.70;;;18.40;99.90;;;;;;4992724;28;20050;-62
2023/10/20 11:36:04;;;;;;;1.67;0.47;;;18.40;99.90;;;;;;4996243;28;20367;-62
2023/10/20 11:38:32;;;;;;;0.82;0.35;;;18.30;99.90;;;;;;4992587;28;20032;-62
2023/10/20 11:40:58;;;;;;;1.77;1.00;;;18.30;99.90;;;;;;4992931;28;20022;-62
2023/10/20 11:43:23;;;;;;;4.80;0.93;;;18.30;99.90;;;;;;4989837;28;20516;-62
2023/10/20 11:45:49;;;;;;;4.20;1.27;;;18.30;99.90;;;;;;4985584;28;20026;-62
2023/10/20 11:48:14;;;;;;;5.85;2.25;;;18.30;99.90;;;;;;4992418;28;20022;-63
2023/10/20 11:50:40;;;;;;;4.93;2.38;;;18.40;99.90;;;;;;4992610;28;20027;-62
2023/10/20 11:53:06;;;;;;;3.50;2.13;;;18.30;99.90;;;;;;4992236;28;20035;-63
2023/10/20 11:55:32;;;;;;;5.47;2.00;;;18.40;99.90;;;;;;4991469;28;20054;-64
2023/10/20 11:57:58;;;;;;;4.18;1.90;;;18.40;99.90;;;;;;4998697;28;20069;-61
2023/10/20 12:00:24;;;;;;;3.85;1.90;;;18.40;99.90;;;;;;4984323;28;20027;-64
2023/10/20 12:02:50;;;;;;;2.90;1.67;;;18.50;99.90;;;;;;4991373;28;20499;-62
2023/10/20 12:05:15;;;;;;;4.20;1.60;;;18.50;99.90;;;;;;4988641;28;20030;-62
2023/10/20 12:07:43;;;;;;;4.90;1.70;;;18.50;99.90;;;;;;4990908;28;20033;-64
2023/10/20 12:10:09;;;;;;;4.22;1.52;;;18.50;99.90;;;;;;4980670;28;20026;-63
2023/10/20 12:12:36;;;;;;;4.57;1.02;;;18.50;99.90;;;;;;4986290;28;20050;-65
2023/10/20 12:15:02;;;;;;;2.17;0.80;;;18.40;99.90;;;;;;4990788;28;20030;-63
2023/10/20 12:17:28;;;;;;;2.25;1.10;;;18.40;99.90;;;;;;4992854;28;20507;-63
2023/10/20 12:20:09;;;;;;;2.75;0.77;;;18.50;99.90;;;;;;4987591;28;20077;-66
2023/10/20 12:22:35;;;;;;;2.93;0.90;;;18.40;99.90;;;;;;4990767;28;20088;-63
2023/10/20 12:25:08;;;;;;;3.15;0.90;;;18.40;99.90;;;;;;4990472;28;20427;-67
2023/10/20 12:27:33;;;;;;;2.22;1.02;;;18.40;99.90;;;;;;4980256;28;20026;-63
2023/10/20 12:30:00;;;;;;;4.15;1.00;;;18.40;99.90;;;;;;4985784;28;20022;-63
2023/10/20 12:32:27;;;;;;;2.88;1.30;;;18.50;99.90;;;;;;4990271;28;20050;-63
2023/10/20 12:34:53;;;;;;;4.18;1.10;;;18.40;99.90;;;;;;4991883;28;20038;-62
2023/10/20 12:37:19;;;;;;;4.97;1.00;;;18.50;99.90;;;;;;4992830;28;20110;-63
2023/10/20 12:39:45;;;;;;;2.28;0.90;;;18.50;99.90;;;;;;4991269;28;20097;-63
2023/10/20 12:42:10;;;;;;;2.38;0.98;;;18.50;99.90;;;;;;4992182;28;20416;-62
2023/10/20 12:44:36;;;;;;;1.73;0.93;;;18.50;99.90;;;;;;4991866;28;20141;-63
2023/10/20 12:47:02;;;;;;;2.42;1.15;;;18.50;99.90;;;;;;4992359;28;20023;-62
2023/10/20 12:49:27;;;;;;;2.35;1.40;;;18.40;99.90;;;;;;4990500;28;20022;-62
2023/10/20 12:51:53;;;;;;;2.15;1.95;;;18.50;99.90;;;;;;4991536;28;20037;-62
2023/10/20 12:54:19;;;;;;;2.30;2.10;;;18.40;99.90;;;;;;4991520;28;20097;-62
2023/10/20 12:56:44;;;;;;;2.30;1.95;;;18.40;99.90;;;;;;4992218;28;20406;-62
2023/10/20 12:59:10;;;;;;;2.17;1.88;;;18.30;99.90;;;;;;4992996;28;20521;-62
2023/10/20 13:01:35;;;;;;;2.92;1.90;;;18.30;99.90;;;;;;4992617;28;20627;-62
2023/10/20 13:04:02;;;;;;;2.33;1.90;;;18.30;99.90;;;;;;4992380;28;20050;-62
2023/10/20 13:06:27;;;;;;;2.22;1.98;;;18.30;99.90;;;;;;4980585;28;20129;-65
2023/10/20 13:08:53;;;;;;;2.45;2.25;;;18.30;99.90;;;;;;4990457;28;20383;-63
2023/10/20 13:11:19;;;;;;;2.83;2.10;;;18.20;99.90;;;;;;4992555;28;20038;-62
2023/10/20 13:13:45;;;;;;;2.50;2.25;;;18.20;99.90;;;;;;4992262;28;20026;-65
2023/10/20 13:16:11;;;;;;;2.58;2.22;;;18.20;99.90;;;;;;4991641;28;20042;-64
2023/10/20 13:18:37;;;;;;;2.83;2.50;;;18.20;99.90;;;;;;4992039;28;20026;-62
2023/10/20 13:21:05;;;;;;;2.40;2.20;;;18.20;99.90;;;;;;4991776;28;20050;-61
2023/10/20 13:23:31;;;;;;;4.55;2.95;;;18.20;99.90;;;;;;5007055;28;20033;-66